Terminal Aerodrome Forecast
Issued by NWS Charleston, WV

Home | Current Version | Previous Version | Text Only | Print | Product List | Glossary On
Versions: 1 2 3 4 5 6 7 8 9 10 11 12 13 14 15 16 17 18 19 20 21 22 23 24 25 26
000
FTUS41 KRLX 270700 AAB
TAFCRW
TAF AMD
KCRW 270759Z 2708/2806 31006KT 5SM -SN OVC015
      TEMPO 2708/2709 BKN008
     FM270900 32007KT 6SM -SN BKN015
     FM271000 32007KT P6SM BKN035
     FM271100 32006KT P6SM SKC
     FM271800 31006KT P6SM SCT035
     FM272300 00000KT P6SM SCT250=

USA.gov is the U.S. government's official web portal to all federal, state and local government web resources and services.